createdAt,value
2019-01-28T00:00:30.837Z,98436.43
2019-01-28T00:03:05.306Z,98437.80
2019-01-28T00:05:36.949Z,98447.28
2019-01-28T00:08:08.653Z,98443.94
2019-01-28T00:10:40.294Z,98444.84
2019-01-28T00:13:12.200Z,98435.36
2019-01-28T00:15:45.158Z,98447.97
2019-01-28T00:18:16.942Z,98454.92
2019-01-28T00:20:50.161Z,98455.48
2019-01-28T00:23:23.856Z,98452.88
2019-01-28T00:25:55.515Z,98463.80
2019-01-28T00:28:27.345Z,98453.02
2019-01-28T00:31:00.193Z,98451.33
2019-01-28T00:33:31.831Z,98458.77
2019-01-28T00:36:03.745Z,98462.27
2019-01-28T00:38:35.721Z,98466.23
2019-01-28T00:41:07.292Z,98462.95
2019-01-28T00:43:38.990Z,98465.23
2019-01-28T00:46:10.647Z,98472.19
2019-01-28T00:48:42.305Z,98462.73
2019-01-28T00:51:14.087Z,98473.12
2019-01-28T00:53:45.690Z,98471.44
2019-01-28T00:56:17.301Z,98479.30
2019-01-28T00:58:48.975Z,98475.79
2019-01-28T01:01:21.218Z,98480.44
2019-01-28T01:03:52.822Z,98480.76
2019-01-28T01:06:24.634Z,98484.98
2019-01-28T01:08:56.535Z,98489.17
2019-01-28T01:11:28.203Z,98489.40
2019-01-28T01:13:59.859Z,98487.58
2019-01-28T01:16:32.394Z,98489.72
2019-01-28T01:19:04.298Z,98497.13
2019-01-28T01:21:39.699Z,98493.69
2019-01-28T01:24:12.320Z,98486.28
2019-01-28T01:26:43.985Z,98488.09
2019-01-28T01:29:16.685Z,98491.61
2019-01-28T01:31:48.367Z,98485.59
2019-01-28T01:34:19.998Z,98495.51
2019-01-28T01:36:51.791Z,98494.14
2019-01-28T01:39:23.419Z,98494.53
2019-01-28T01:41:55.059Z,98492.78
2019-01-28T01:44:26.802Z,98495.44
2019-01-28T01:46:58.389Z,98498.43
2019-01-28T01:49:29.999Z,98489.33
2019-01-28T01:52:02.813Z,98493.23
2019-01-28T01:54:35.543Z,98488.42
2019-01-28T01:57:07.247Z,98493.91
2019-01-28T01:59:38.829Z,98488.12
2019-01-28T02:02:15.688Z,98491.08
2019-01-28T02:04:47.443Z,98488.41
2019-01-28T02:07:19.336Z,98491.02
2019-01-28T02:09:51.202Z,98477.95
2019-01-28T02:12:22.849Z,98482.77
2019-01-28T02:14:54.637Z,98479.88
2019-01-28T02:17:28.372Z,98468.70
2019-01-28T02:20:00.480Z,98469.22
2019-01-28T02:22:32.674Z,98476.41
2019-01-28T02:25:06.257Z,98476.63
2019-01-28T02:27:38.254Z,98474.81
2019-01-28T02:30:14.250Z,98475.56
2019-01-28T02:32:46.412Z,98471.66
2019-01-28T02:35:19.420Z,98467.77
2019-01-28T02:37:50.967Z,98473.06
2019-01-28T02:40:24.218Z,98474.94
2019-01-28T02:42:55.826Z,98467.93
2019-01-28T02:45:28.388Z,98470.82
2019-01-28T02:48:00.059Z,98470.20
2019-01-28T02:50:31.678Z,98466.05
2019-01-28T02:53:03.402Z,98472.64
2019-01-28T02:55:35.119Z,98469.65
2019-01-28T02:58:07.005Z,98468.35
2019-01-28T03:00:38.730Z,98464.91
2019-01-28T03:03:10.413Z,98465.91
2019-01-28T03:05:42.152Z,98460.78
2019-01-28T03:08:13.797Z,98458.19
2019-01-28T03:10:45.625Z,98458.70
2019-01-28T03:13:17.222Z,98454.41
2019-01-28T03:15:51.067Z,98450.91
2019-01-28T03:18:22.765Z,98442.83
2019-01-28T03:20:54.356Z,98438.77
2019-01-28T03:23:28.091Z,98440.19
2019-01-28T03:25:59.813Z,98442.10
2019-01-28T03:28:31.435Z,98440.58
2019-01-28T03:31:03.057Z,98445.53
2019-01-28T03:33:34.753Z,98439.11
2019-01-28T03:36:06.467Z,98447.12
2019-01-28T03:38:38.031Z,98447.17
2019-01-28T03:41:09.853Z,98441.75
2019-01-28T03:43:41.602Z,98444.41
2019-01-28T03:46:14.490Z,98446.62
2019-01-28T03:48:46.301Z,98445.41
2019-01-28T03:51:18.045Z,98448.81
2019-01-28T03:53:49.892Z,98446.89
2019-01-28T03:56:21.652Z,98437.64
2019-01-28T03:58:53.424Z,98436.55
2019-01-28T04:01:26.619Z,98438.40
2019-01-28T04:03:58.600Z,98447.70
2019-01-28T04:06:30.192Z,98442.62
2019-01-28T04:09:01.915Z,98447.88
2019-01-28T04:11:33.480Z,98442.56
2019-01-28T04:14:06.082Z,98441.66
2019-01-28T04:16:38.805Z,98446.46
2019-01-28T04:19:10.456Z,98453.01
2019-01-28T04:21:42.149Z,98450.87
2019-01-28T04:24:14.051Z,98457.35
2019-01-28T04:26:46.251Z,98454.76
2019-01-28T04:29:18.139Z,98453.16
2019-01-28T04:31:49.803Z,98448.88
2019-01-28T04:34:21.497Z,98449.78
2019-01-28T04:36:53.089Z,98451.53
2019-01-28T04:39:25.079Z,98447.58
2019-01-28T04:41:56.973Z,98445.77
2019-01-28T04:44:28.706Z,98447.06
2019-01-28T04:47:00.335Z,98446.22
2019-01-28T04:49:32.411Z,98441.03
2019-01-28T04:52:04.010Z,98444.38
2019-01-28T04:54:35.893Z,98444.77
2019-01-28T04:57:07.933Z,98447.37
2019-01-28T04:59:39.801Z,98437.14
2019-01-28T05:02:11.518Z,98438.05
2019-01-28T05:04:43.135Z,98435.97
2019-01-28T05:07:15.788Z,98438.66
2019-01-28T05:09:47.677Z,98426.70
2019-01-28T05:12:23.216Z,98431.14
2019-01-28T05:14:55.042Z,98427.16
2019-01-28T05:17:28.928Z,98429.69
2019-01-28T05:20:00.563Z,98431.32
2019-01-28T05:22:32.216Z,98432.98
2019-01-28T05:25:03.857Z,98421.39
2019-01-28T05:27:36.845Z,98422.24
2019-01-28T05:30:14.320Z,98422.69
2019-01-28T05:32:46.167Z,98419.55
2019-01-28T05:35:18.626Z,98429.93
2019-01-28T05:37:50.387Z,98420.94
2019-01-28T05:40:24.006Z,98413.06
2019-01-28T05:42:56.525Z,98422.87
2019-01-28T05:45:28.305Z,98422.78
2019-01-28T05:48:00.258Z,98416.29
2019-01-28T05:50:31.860Z,98414.99
2019-01-28T05:53:03.479Z,98411.95
2019-01-28T05:55:35.085Z,98417.13
2019-01-28T05:58:06.713Z,98413.63
2019-01-28T06:00:41.675Z,98414.99
2019-01-28T06:03:13.533Z,98415.99
2019-01-28T06:05:45.552Z,98416.45
2019-01-28T06:08:17.172Z,98413.79
2019-01-28T06:10:48.797Z,98418.59
2019-01-28T06:13:20.456Z,98417.74
2019-01-28T06:15:52.732Z,98410.02
2019-01-28T06:18:24.504Z,98421.84
2019-01-28T06:20:56.336Z,98417.27
2019-01-28T06:23:28.078Z,98412.59
2019-01-28T06:25:59.826Z,98419.08
2019-01-28T06:28:31.997Z,98409.48
2019-01-28T06:31:03.706Z,98415.03
2019-01-28T06:33:35.449Z,98412.77
2019-01-28T06:36:07.565Z,98414.45
2019-01-28T06:38:39.576Z,98413.22
2019-01-28T06:41:12.928Z,98420.55
2019-01-28T06:43:44.712Z,98414.06
2019-01-28T06:46:18.066Z,98413.61
2019-01-28T06:48:49.901Z,98417.50
2019-01-28T06:51:21.534Z,98414.06
2019-01-28T06:53:53.487Z,98412.89
2019-01-28T06:56:25.211Z,98419.08
2019-01-28T06:58:57.137Z,98429.91
2019-01-28T07:01:28.839Z,98429.39
2019-01-28T07:04:00.751Z,98426.80
2019-01-28T07:06:32.353Z,98428.09
2019-01-28T07:09:05.947Z,98428.45
2019-01-28T07:11:37.575Z,98429.23
2019-01-28T07:14:09.211Z,98424.89
2019-01-28T07:16:41.584Z,98425.29
2019-01-28T07:19:16.751Z,98435.67
2019-01-28T07:21:50.046Z,98432.28
2019-01-28T07:24:21.908Z,98429.00
2019-01-28T07:26:53.544Z,98436.55
2019-01-28T07:29:25.418Z,98435.36
2019-01-28T07:31:57.020Z,98439.25
2019-01-28T07:34:28.860Z,98438.86
2019-01-28T07:37:00.576Z,98445.44
2019-01-28T07:39:33.516Z,98443.81
2019-01-28T07:42:05.312Z,98439.16
2019-01-28T07:44:36.976Z,98449.20
2019-01-28T07:47:08.648Z,98446.28
2019-01-28T07:49:40.584Z,98449.86
2019-01-28T07:52:13.266Z,98441.75
2019-01-28T07:54:44.924Z,98442.59
2019-01-28T07:57:16.533Z,98443.89
2019-01-28T07:59:48.128Z,98444.34
2019-01-28T08:02:19.907Z,98449.08
2019-01-28T08:04:51.779Z,98445.19
2019-01-28T08:07:23.879Z,98442.09
2019-01-28T08:09:55.620Z,98458.04
2019-01-28T08:12:27.447Z,98453.30
2019-01-28T08:14:59.264Z,98452.91
2019-01-28T08:17:31.599Z,98452.91
2019-01-28T08:20:11.192Z,98456.80
2019-01-28T08:22:36.814Z,98455.45
2019-01-28T08:25:10.950Z,98460.54
2019-01-28T08:27:42.827Z,98453.60
2019-01-28T08:30:30.340Z,98452.64
2019-01-28T08:33:03.076Z,98452.95
2019-01-28T08:35:36.635Z,98452.49
2019-01-28T08:38:08.501Z,98449.33
2019-01-28T08:40:40.134Z,98458.59
2019-01-28T08:43:11.858Z,98458.69
2019-01-28T08:45:46.671Z,98461.45
2019-01-28T08:48:20.074Z,98461.34
2019-01-28T08:50:51.834Z,98449.05
2019-01-28T08:53:23.985Z,98460.13
2019-01-28T08:55:55.956Z,98453.13
2019-01-28T08:58:28.039Z,98452.13
2019-01-28T09:01:00.692Z,98449.02
2019-01-28T09:03:32.377Z,98446.87
2019-01-28T09:06:04.052Z,98448.23
2019-01-28T09:08:35.881Z,98449.98
2019-01-28T09:11:07.741Z,98449.62
2019-01-28T09:13:39.424Z,98455.17
2019-01-28T09:16:12.130Z,98453.52
2019-01-28T09:18:44.029Z,98456.17
2019-01-28T09:21:15.711Z,98464.41
2019-01-28T09:23:47.633Z,98468.81
2019-01-28T09:26:19.344Z,98460.28
2019-01-28T09:28:51.012Z,98461.64
2019-01-28T09:31:23.522Z,98464.17
2019-01-28T09:33:55.275Z,98459.83
2019-01-28T09:36:26.934Z,98458.98
2019-01-28T09:39:18.142Z,98455.48
2019-01-28T09:41:51.288Z,98461.36
2019-01-28T09:44:23.320Z,98467.79
2019-01-28T09:46:55.525Z,98472.59
2019-01-28T09:49:27.260Z,98472.89
2019-01-28T09:51:58.890Z,98472.44
2019-01-28T09:54:30.953Z,98478.41
2019-01-28T09:57:02.733Z,98469.63
2019-01-28T09:59:36.433Z,98479.95
2019-01-28T10:02:08.482Z,98476.90
2019-01-28T10:04:40.340Z,98473.91
2019-01-28T10:07:12.029Z,98473.45
2019-01-28T10:09:44.013Z,98481.58
2019-01-28T10:12:15.929Z,98478.53
2019-01-28T10:14:47.619Z,98488.81
2019-01-28T10:17:21.558Z,98491.41
2019-01-28T10:19:56.231Z,98475.84
2019-01-28T10:22:28.237Z,98486.16
2019-01-28T10:25:00.239Z,98486.10
2019-01-28T10:27:33.256Z,98484.80
2019-01-28T10:30:08.802Z,98478.77
2019-01-28T10:32:40.563Z,98489.15
2019-01-28T10:35:14.260Z,98490.35
2019-01-28T10:37:46.101Z,98492.89
2019-01-28T10:40:22.661Z,98495.09
2019-01-28T10:42:54.462Z,98493.11
2019-01-28T10:45:26.316Z,98485.92
2019-01-28T10:48:00.720Z,98493.83
2019-01-28T10:50:31.783Z,98487.89
2019-01-28T10:53:03.412Z,98488.85
2019-01-28T10:55:35.136Z,98498.39
2019-01-28T10:58:07.599Z,98488.10
2019-01-28T11:00:44.410Z,98493.74
2019-01-28T11:03:20.159Z,98499.30
2019-01-28T11:05:52.262Z,98499.17
2019-01-28T11:08:24.067Z,98494.38
2019-01-28T11:10:55.732Z,98488.64
2019-01-28T11:13:28.364Z,98485.65
2019-01-28T11:16:00.713Z,98498.39
2019-01-28T11:18:33.314Z,98484.87
2019-01-28T11:21:05.495Z,98491.93
2019-01-28T11:23:37.205Z,98492.38
2019-01-28T11:26:08.939Z,98490.84
2019-01-28T11:28:41.077Z,98499.47
2019-01-28T11:31:12.950Z,98482.61
2019-01-28T11:33:44.685Z,98493.89
2019-01-28T11:36:16.440Z,98501.67
2019-01-28T11:38:49.471Z,98499.02
2019-01-28T11:41:21.210Z,98492.59
2019-01-28T11:43:54.018Z,98501.28
2019-01-28T11:46:25.791Z,98491.30
2019-01-28T11:49:05.535Z,98499.87
2019-01-28T11:51:31.462Z,98501.07
2019-01-28T11:54:04.925Z,98498.48
2019-01-28T11:56:36.558Z,98484.14
2019-01-28T11:59:08.622Z,98496.61
2019-01-28T12:01:40.669Z,98503.48
2019-01-28T12:04:13.938Z,98508.68
2019-01-28T12:06:45.743Z,98498.59
2019-01-28T12:09:17.397Z,98501.53
2019-01-28T12:11:49.054Z,98505.78
2019-01-28T12:14:20.695Z,98498.09
2019-01-28T12:16:56.782Z,98504.70
2019-01-28T12:19:29.950Z,98512.48
2019-01-28T12:22:01.750Z,98505.54
2019-01-28T12:24:33.397Z,98515.08
2019-01-28T12:27:05.331Z,98509.98
2019-01-28T12:29:37.117Z,98515.92
2019-01-28T12:32:11.606Z,98509.88
2019-01-28T12:34:43.551Z,98511.19
2019-01-28T12:37:15.203Z,98518.61
2019-01-28T12:39:46.911Z,98522.95
2019-01-28T12:42:19.925Z,98513.08
2019-01-28T12:44:51.557Z,98516.98
2019-01-28T12:47:23.594Z,98522.62
2019-01-28T12:49:56.369Z,98523.91
2019-01-28T12:52:28.289Z,98514.53
2019-01-28T12:54:59.941Z,98531.00
2019-01-28T12:57:31.773Z,98522.37
2019-01-28T13:00:03.519Z,98533.05
2019-01-28T13:02:35.346Z,98536.44
2019-01-28T13:05:10.387Z,98537.79
2019-01-28T13:07:42.510Z,98541.62
2019-01-28T13:10:17.527Z,98556.41
2019-01-28T13:12:49.453Z,98547.92
2019-01-28T13:15:24.942Z,98555.41
2019-01-28T13:17:59.164Z,98556.76
2019-01-28T13:20:31.097Z,98557.45
2019-01-28T13:23:02.965Z,98560.50
2019-01-28T13:25:36.281Z,98564.09
2019-01-28T13:28:09.569Z,98562.85
2019-01-28T13:30:41.452Z,98571.98
2019-01-28T13:33:17.362Z,98579.86
2019-01-28T13:35:49.404Z,98573.94
2019-01-28T13:38:21.290Z,98579.12
2019-01-28T13:40:52.968Z,98578.67
2019-01-28T13:43:24.855Z,98574.73
2019-01-28T13:45:56.577Z,98585.05
2019-01-28T13:48:28.411Z,98588.01
2019-01-28T13:51:00.213Z,98589.59
2019-01-28T13:53:32.914Z,98587.30
2019-01-28T13:56:04.696Z,98595.48
2019-01-28T13:58:36.405Z,98591.98
2019-01-28T14:01:09.522Z,98600.16
2019-01-28T14:03:41.223Z,98611.84
2019-01-28T14:06:13.261Z,98610.20
2019-01-28T14:08:46.784Z,98619.73
2019-01-28T14:11:19.240Z,98624.52
2019-01-28T14:13:50.981Z,98624.47
2019-01-28T14:16:22.841Z,98626.22
2019-01-28T14:18:55.168Z,98627.52
2019-01-28T14:21:30.147Z,98632.20
2019-01-28T14:24:09.294Z,98639.45
2019-01-28T14:26:42.669Z,98642.97
2019-01-28T14:29:17.339Z,98642.97
2019-01-28T14:31:50.482Z,98646.87
2019-01-28T14:34:30.345Z,98644.72
2019-01-28T14:37:05.989Z,98655.09
2019-01-28T14:39:48.224Z,98659.45
2019-01-28T14:42:30.148Z,98663.34
2019-01-28T14:45:05.243Z,98674.56
2019-01-28T14:47:39.094Z,98665.09
2019-01-28T14:50:26.704Z,98665.98
2019-01-28T14:53:01.969Z,98678.95
2019-01-28T14:55:38.334Z,98682.85
2019-01-28T14:58:16.438Z,98690.19
2019-01-28T15:00:52.150Z,98696.27
2019-01-28T15:03:27.125Z,98697.57
2019-01-28T15:06:03.117Z,98702.56
2019-01-28T15:08:37.410Z,98708.05
2019-01-28T15:11:12.799Z,98707.40
2019-01-28T15:13:55.124Z,98712.84
2019-01-28T15:16:31.201Z,98711.41
2019-01-28T15:19:08.840Z,98717.39
2019-01-28T15:21:45.138Z,98726.87
2019-01-28T15:24:20.635Z,98733.22
2019-01-28T15:26:56.751Z,98728.42
2019-01-28T15:29:28.615Z,98744.30
2019-01-28T15:32:00.356Z,98746.45
2019-01-28T15:34:32.134Z,98750.30
2019-01-28T15:37:03.824Z,98760.23
2019-01-28T15:39:35.820Z,98757.58
2019-01-28T15:42:07.879Z,98770.41
2019-01-28T15:44:39.712Z,98764.31
2019-01-28T15:47:11.492Z,98781.64
2019-01-28T15:49:43.248Z,98782.44
2019-01-28T15:52:15.261Z,98785.40
2019-01-28T15:54:46.972Z,98793.19
2019-01-28T15:57:18.771Z,98796.64
2019-01-28T15:59:50.885Z,98798.33
2019-01-28T16:02:22.923Z,98812.22
2019-01-28T16:04:54.726Z,98812.80
2019-01-28T16:07:26.457Z,98816.05
2019-01-28T16:09:59.348Z,98820.13
2019-01-28T16:12:31.036Z,98815.49
2019-01-28T16:15:02.880Z,98822.56
2019-01-28T16:17:35.768Z,98826.91
2019-01-28T16:20:08.857Z,98831.70
2019-01-28T16:22:40.505Z,98829.56
2019-01-28T16:25:13.224Z,98833.45
2019-01-28T16:27:45.062Z,98840.79
2019-01-28T16:30:26.227Z,98856.81
2019-01-28T16:32:59.681Z,98855.52
2019-01-28T16:35:45.962Z,98852.02
2019-01-28T16:38:31.531Z,98871.63
2019-01-28T16:41:05.639Z,98871.27
2019-01-28T16:43:38.495Z,98878.21
2019-01-28T16:46:10.357Z,98879.06
2019-01-28T16:48:42.566Z,98893.28
2019-01-28T16:51:14.241Z,98894.98
2019-01-28T16:53:46.159Z,98894.53
2019-01-28T16:56:20.158Z,98909.98
2019-01-28T16:58:51.841Z,98914.27
2019-01-28T17:01:23.533Z,98924.16
2019-01-28T17:03:55.347Z,98925.81
2019-01-28T17:06:27.169Z,98927.86
2019-01-28T17:08:58.900Z,98931.23
2019-01-28T17:11:30.570Z,98935.52
2019-01-28T17:14:02.313Z,98938.91
2019-01-28T17:16:34.077Z,98935.88
2019-01-28T17:19:06.594Z,98944.03
2019-01-28T17:21:40.497Z,98954.77
2019-01-28T17:24:15.120Z,98960.80
2019-01-28T17:26:53.072Z,98951.77
2019-01-28T17:29:31.863Z,98963.50
2019-01-28T17:32:11.308Z,98964.80
2019-01-28T17:34:48.557Z,98965.33
2019-01-28T17:37:26.291Z,98967.08
2019-01-28T17:40:07.012Z,98974.86
2019-01-28T17:42:42.469Z,98974.91
2019-01-28T17:45:21.458Z,98982.70
2019-01-28T17:47:56.125Z,98981.41
2019-01-28T17:50:30.748Z,98991.34
2019-01-28T17:53:06.555Z,98996.53
2019-01-28T17:55:41.209Z,98992.23
2019-01-28T17:58:16.026Z,98999.66
2019-01-28T18:00:51.222Z,99004.85
2019-01-28T18:03:28.678Z,99010.49
2019-01-28T18:06:08.457Z,99019.58
2019-01-28T18:08:40.299Z,99018.73
2019-01-28T18:11:14.432Z,99029.52
2019-01-28T18:13:46.198Z,99031.18
2019-01-28T18:16:20.471Z,99037.62
2019-01-28T18:18:57.176Z,99041.07
2019-01-28T18:21:32.375Z,99042.81
2019-01-28T18:24:04.547Z,99045.81
2019-01-28T18:26:36.276Z,99051.41
2019-01-28T18:29:08.065Z,99052.26
2019-01-28T18:31:39.915Z,99061.34
2019-01-28T18:34:11.753Z,99059.64
2019-01-28T18:36:45.465Z,99063.14
2019-01-28T18:39:18.127Z,99074.83
2019-01-28T18:41:49.984Z,99080.02
2019-01-28T18:44:23.284Z,99085.61
2019-01-28T18:46:54.994Z,99089.50
2019-01-28T18:49:26.837Z,99094.70
2019-01-28T18:52:00.201Z,99102.48
2019-01-28T18:54:31.967Z,99117.17
2019-01-28T18:57:03.689Z,99119.36
2019-01-28T18:59:35.565Z,99127.16
2019-01-28T19:02:08.391Z,99131.45
2019-01-28T19:04:40.043Z,99130.24
2019-01-28T19:07:40.157Z,99138.88
2019-01-28T19:10:34.719Z,99142.33
2019-01-28T19:13:40.477Z,99150.52
2019-01-28T19:16:33.716Z,99156.56
2019-01-28T19:19:34.277Z,99162.25
2019-01-28T19:22:06.235Z,99166.59
2019-01-28T19:24:37.931Z,99171.78
2019-01-28T19:27:09.869Z,99176.57
2019-01-28T19:29:41.843Z,99176.57
2019-01-28T19:32:13.597Z,99177.95
2019-01-28T19:34:45.265Z,99181.48
2019-01-28T19:37:17.320Z,99189.84
2019-01-28T19:39:49.395Z,99196.41
2019-01-28T19:42:21.315Z,99203.88
2019-01-28T19:44:53.189Z,99204.44
2019-01-28T19:47:25.007Z,99209.27
2019-01-28T19:49:56.926Z,99212.30
2019-01-28T19:52:28.946Z,99221.91
2019-01-28T19:55:02.035Z,99231.03
2019-01-28T19:57:33.667Z,99233.71
2019-01-28T20:00:08.003Z,99235.12
2019-01-28T20:02:39.771Z,99235.69
2019-01-28T20:05:12.621Z,99247.89
2019-01-28T20:07:44.407Z,99247.63
2019-01-28T20:10:16.416Z,99253.34
2019-01-28T20:12:48.403Z,99259.45
2019-01-28T20:15:22.342Z,99262.57
2019-01-28T20:17:55.526Z,99272.62
2019-01-28T20:20:27.322Z,99268.84
2019-01-28T20:22:59.152Z,99272.83
2019-01-28T20:25:31.442Z,99273.80
2019-01-28T20:28:03.168Z,99278.65
2019-01-28T20:30:35.341Z,99285.72
2019-01-28T20:33:07.576Z,99293.13
2019-01-28T20:35:39.423Z,99294.53
2019-01-28T20:38:15.915Z,99297.67
2019-01-28T20:40:44.593Z,99305.05
2019-01-28T20:43:23.684Z,99308.16
2019-01-28T20:45:50.356Z,99307.84
2019-01-28T20:48:22.101Z,99314.84
2019-01-28T20:50:53.855Z,99321.80
2019-01-28T20:53:25.669Z,99324.46
2019-01-28T20:55:57.740Z,99325.38
2019-01-28T20:58:31.084Z,99328.02
2019-01-28T21:01:03.096Z,99330.60
2019-01-28T21:03:35.210Z,99331.55
2019-01-28T21:06:07.660Z,99333.73
2019-01-28T21:08:39.479Z,99340.25
2019-01-28T21:11:11.159Z,99344.65
2019-01-28T21:13:43.769Z,99352.36
2019-01-28T21:16:15.909Z,99363.14
2019-01-28T21:18:48.271Z,99368.77
2019-01-28T21:21:21.301Z,99366.17
2019-01-28T21:23:53.254Z,99370.91
2019-01-28T21:26:25.050Z,99377.84
2019-01-28T21:28:56.904Z,99384.73
2019-01-28T21:31:29.002Z,99386.91
2019-01-28T21:34:00.934Z,99393.83
2019-01-28T21:36:46.756Z,99393.83
2019-01-28T21:39:18.471Z,99393.05
2019-01-28T21:41:50.127Z,99391.75
2019-01-28T21:44:21.831Z,99386.59
2019-01-28T21:46:53.572Z,99399.55
2019-01-28T21:49:26.939Z,99396.55
2019-01-28T21:51:58.957Z,99394.84
2019-01-28T21:54:30.756Z,99406.98
2019-01-28T21:57:02.569Z,99404.39
2019-01-28T21:59:34.381Z,99407.87
2019-01-28T22:02:06.225Z,99404.77
2019-01-28T22:09:40.730Z,99414.56
2019-01-28T22:12:12.839Z,99414.56
2019-01-28T22:14:44.489Z,99421.02
2019-01-28T22:17:16.295Z,99425.75
2019-01-28T22:19:48.732Z,99423.16
2019-01-28T22:22:20.366Z,99422.78
2019-01-28T22:24:52.014Z,99429.33
2019-01-28T22:27:24.764Z,99428.92
2019-01-28T22:29:56.551Z,99429.77
2019-01-28T22:32:28.291Z,99435.81
2019-01-28T22:35:00.210Z,99448.27
2019-01-28T22:37:33.404Z,99449.05
2019-01-28T22:40:06.336Z,99449.47
2019-01-28T22:42:38.574Z,99455.88
2019-01-28T22:45:17.051Z,99459.33
2019-01-28T22:47:48.687Z,99462.78
2019-01-28T22:50:21.053Z,99464.52
2019-01-28T22:52:53.003Z,99470.58
2019-01-28T22:55:25.201Z,99474.98
2019-01-28T22:57:57.171Z,99473.69
2019-01-28T23:00:47.323Z,99477.98
2019-01-28T23:03:21.398Z,99475.33
2019-01-28T23:05:53.339Z,99475.39
2019-01-28T23:08:25.073Z,99474.47
2019-01-28T23:10:56.890Z,99473.17
2019-01-28T23:13:28.874Z,99480.09
2019-01-28T23:16:00.804Z,99480.09
2019-01-28T23:18:35.148Z,99477.06
2019-01-28T23:21:06.895Z,99479.28
2019-01-28T23:23:38.594Z,99475.39
2019-01-28T23:26:10.291Z,99472.80
2019-01-28T23:28:42.050Z,99476.18
2019-01-28T23:31:13.686Z,99475.27
2019-01-28T23:33:45.393Z,99484.28
2019-01-28T23:36:17.006Z,99494.62
2019-01-28T23:38:48.664Z,99492.44
2019-01-28T23:41:21.024Z,99500.16
2019-01-28T23:43:52.920Z,99504.02
2019-01-28T23:46:24.567Z,99497.09
2019-01-28T23:48:56.485Z,99500.95
2019-01-28T23:51:28.113Z,99505.72
2019-01-28T23:54:00.129Z,99508.31
2019-01-28T23:56:31.791Z,99510.05
